createdAt,value
2017-08-27T00:00:52.126Z,42.73
2017-08-27T00:03:19.628Z,42.40
2017-08-27T00:05:46.946Z,46.47
2017-08-27T00:08:14.337Z,49.70
2017-08-27T00:10:41.652Z,47.03
2017-08-27T00:13:09.291Z,47.60
2017-08-27T00:15:36.636Z,50.47
2017-08-27T00:18:03.987Z,50.07
2017-08-27T00:20:31.289Z,55.30
2017-08-27T00:22:58.640Z,48.37
2017-08-27T00:25:25.986Z,54.10
2017-08-27T00:27:53.358Z,51.40
2017-08-27T00:30:20.674Z,49.13
2017-08-27T00:32:48.031Z,47.03
2017-08-27T00:35:15.333Z,56.43
2017-08-27T00:37:43.636Z,52.10
2017-08-27T00:40:10.957Z,43.63
2017-08-27T00:42:38.313Z,48.30
2017-08-27T00:45:05.649Z,54.03
2017-08-27T00:47:33.002Z,48.13
2017-08-27T00:50:00.321Z,52.07
2017-08-27T00:52:27.977Z,46.33
2017-08-27T00:54:55.302Z,43.03
2017-08-27T00:57:22.699Z,41.90
2017-08-27T00:59:50.002Z,41.73
2017-08-27T01:02:17.343Z,39.03
2017-08-27T01:04:44.701Z,40.13
2017-08-27T01:07:11.999Z,44.80
2017-08-27T01:09:39.484Z,45.37
2017-08-27T01:12:06.812Z,40.00
2017-08-27T01:14:34.235Z,41.20
2017-08-27T01:17:01.600Z,45.17
2017-08-27T01:19:28.946Z,46.13
2017-08-27T01:21:56.269Z,49.10
2017-08-27T01:24:23.631Z,49.77
2017-08-27T01:26:50.945Z,49.53
2017-08-27T01:29:18.314Z,46.37
2017-08-27T01:31:45.646Z,50.10
2017-08-27T01:34:12.977Z,53.37
2017-08-27T01:36:40.345Z,48.20
2017-08-27T01:39:07.970Z,56.33
2017-08-27T01:41:35.301Z,51.60
2017-08-27T01:44:02.625Z,60.40
2017-08-27T01:46:29.938Z,57.20
2017-08-27T01:48:57.246Z,53.73
2017-08-27T01:51:24.590Z,52.40
2017-08-27T01:53:51.918Z,52.83
2017-08-27T01:56:19.271Z,52.27
2017-08-27T01:58:46.605Z,50.73
2017-08-27T02:01:14.254Z,53.80
2017-08-27T02:03:41.569Z,54.40
2017-08-27T02:06:08.894Z,54.07
2017-08-27T02:08:36.215Z,55.80
2017-08-27T02:11:03.538Z,52.10
2017-08-27T02:13:30.853Z,51.07
2017-08-27T02:15:58.197Z,52.87
2017-08-27T02:18:25.525Z,52.60
2017-08-27T02:20:52.865Z,51.87
2017-08-27T02:23:20.233Z,54.83
2017-08-27T02:25:47.566Z,54.10
2017-08-27T02:28:14.876Z,53.83
2017-08-27T02:30:42.212Z,53.77
2017-08-27T02:33:09.690Z,57.47
2017-08-27T02:35:37.022Z,58.00
2017-08-27T02:38:04.378Z,59.77
2017-08-27T02:40:31.695Z,56.13
2017-08-27T02:42:59.054Z,57.27
2017-08-27T02:45:26.378Z,62.30
2017-08-27T02:47:53.738Z,56.30
2017-08-27T02:50:21.054Z,55.47
2017-08-27T02:52:48.705Z,60.80
2017-08-27T02:55:16.046Z,60.03
2017-08-27T02:57:43.412Z,57.30
2017-08-27T03:00:10.717Z,52.70
2017-08-27T03:02:38.089Z,55.77
2017-08-27T03:05:05.432Z,51.17
2017-08-27T03:07:32.750Z,51.17
2017-08-27T03:10:00.128Z,54.17
2017-08-27T03:12:27.454Z,52.33
2017-08-27T03:14:54.811Z,48.97
2017-08-27T03:17:22.124Z,50.40
2017-08-27T03:19:49.476Z,52.30
2017-08-27T03:22:16.825Z,51.67
2017-08-27T03:24:44.370Z,54.77
2017-08-27T03:27:11.687Z,54.73
2017-08-27T03:29:39.063Z,59.53
2017-08-27T03:32:06.386Z,57.33
2017-08-27T03:34:33.722Z,63.17
2017-08-27T03:37:01.074Z,57.43
2017-08-27T03:39:28.431Z,65.17
2017-08-27T03:41:55.742Z,54.83
2017-08-27T03:44:23.099Z,56.10
2017-08-27T03:46:50.431Z,53.60
2017-08-27T03:49:17.813Z,56.10
2017-08-27T03:51:45.107Z,56.30
2017-08-27T03:54:12.424Z,54.60
2017-08-27T03:56:39.754Z,59.23
2017-08-27T03:59:07.072Z,56.40
2017-08-27T04:01:34.389Z,59.10
2017-08-27T04:04:01.716Z,51.67
2017-08-27T04:06:29.062Z,57.33
2017-08-27T04:08:56.388Z,57.17
2017-08-27T04:11:23.755Z,58.93
2017-08-27T04:13:51.090Z,60.13
2017-08-27T04:16:18.751Z,62.00
2017-08-27T04:18:46.069Z,59.27
2017-08-27T04:21:13.400Z,52.70
2017-08-27T04:23:40.741Z,62.33
2017-08-27T04:26:08.074Z,61.30
2017-08-27T04:28:35.389Z,59.23
2017-08-27T04:31:02.719Z,58.53
2017-08-27T04:33:30.043Z,53.60
2017-08-27T04:35:57.377Z,53.80
2017-08-27T04:38:24.693Z,54.87
2017-08-27T04:40:52.058Z,55.83
2017-08-27T04:43:19.375Z,53.10
2017-08-27T04:45:46.739Z,53.07
2017-08-27T04:48:14.055Z,54.77
2017-08-27T04:50:41.397Z,51.90
2017-08-27T04:53:08.740Z,51.30
2017-08-27T04:55:36.097Z,52.23
2017-08-27T04:58:03.436Z,52.10
2017-08-27T05:00:30.768Z,54.00
2017-08-27T05:02:58.099Z,48.50
2017-08-27T05:05:25.457Z,51.97
2017-08-27T05:07:52.903Z,51.87
2017-08-27T05:10:20.229Z,56.40
2017-08-27T05:12:47.581Z,64.40
2017-08-27T05:15:14.924Z,58.40
2017-08-27T05:17:42.265Z,58.53
2017-08-27T05:20:09.572Z,60.87
2017-08-27T05:22:36.906Z,55.20
2017-08-27T05:25:04.216Z,53.90
2017-08-27T05:27:31.546Z,56.80
2017-08-27T05:29:58.869Z,50.40
2017-08-27T05:32:26.216Z,51.03
2017-08-27T05:34:53.570Z,46.37
2017-08-27T05:37:20.915Z,47.40
2017-08-27T05:39:48.231Z,44.27
2017-08-27T05:42:15.614Z,49.20
2017-08-27T05:44:42.917Z,46.70
2017-08-27T05:47:10.258Z,41.93
2017-08-27T05:49:37.613Z,39.57
2017-08-27T05:52:04.950Z,43.07
2017-08-27T05:54:32.270Z,44.50
2017-08-27T05:56:59.662Z,40.40
2017-08-27T05:59:26.983Z,36.73
2017-08-27T06:01:54.289Z,42.60
2017-08-27T06:04:21.644Z,38.80
2017-08-27T06:06:48.986Z,34.93
2017-08-27T06:09:16.363Z,37.87
2017-08-27T06:11:43.670Z,37.97
2017-08-27T06:14:11.008Z,33.03
2017-08-27T06:16:38.355Z,36.80
2017-08-27T06:19:05.697Z,35.70
2017-08-27T06:21:33.039Z,31.97
2017-08-27T06:24:00.367Z,33.20
2017-08-27T06:26:27.697Z,32.83
2017-08-27T06:28:55.070Z,39.67
2017-08-27T06:31:22.385Z,39.30
2017-08-27T06:33:49.737Z,34.70
2017-08-27T06:36:17.063Z,36.47
2017-08-27T06:38:44.626Z,38.33
2017-08-27T06:41:11.973Z,39.03
2017-08-27T06:43:39.321Z,37.27
2017-08-27T06:46:06.625Z,38.60
2017-08-27T06:48:34.011Z,36.30
2017-08-27T06:51:01.335Z,38.20
2017-08-27T06:53:28.683Z,39.70
2017-08-27T06:55:56.004Z,41.83
2017-08-27T06:58:23.307Z,42.20
2017-08-27T07:00:50.630Z,41.77
2017-08-27T07:03:17.945Z,42.20
2017-08-27T07:05:45.290Z,41.47
2017-08-27T07:08:12.635Z,43.97
2017-08-27T07:10:39.957Z,40.20
2017-08-27T07:13:07.291Z,40.87
2017-08-27T07:15:34.637Z,34.73
2017-08-27T07:18:01.973Z,36.57
2017-08-27T07:20:29.333Z,38.60
2017-08-27T07:22:57.630Z,37.00
2017-08-27T07:25:24.962Z,37.53
2017-08-27T07:27:52.293Z,32.90
2017-08-27T07:30:19.666Z,32.40
2017-08-27T07:32:47.000Z,37.50
2017-08-27T07:35:14.345Z,39.90
2017-08-27T07:37:41.655Z,31.03
2017-08-27T07:40:08.985Z,36.70
2017-08-27T07:42:36.313Z,30.20
2017-08-27T07:45:03.814Z,27.90
2017-08-27T07:47:31.185Z,30.10
2017-08-27T07:49:58.559Z,23.27
2017-08-27T07:52:25.887Z,27.53
2017-08-27T07:54:53.239Z,26.60
2017-08-27T07:57:20.698Z,25.30
2017-08-27T07:59:48.100Z,27.00
2017-08-27T08:02:15.414Z,30.60
2017-08-27T08:04:42.724Z,38.90
2017-08-27T08:07:10.041Z,24.23
2017-08-27T08:09:37.480Z,28.60
2017-08-27T08:12:04.806Z,23.50
2017-08-27T08:14:32.115Z,26.37
2017-08-27T08:16:59.627Z,21.77
2017-08-27T08:19:27.383Z,21.20
2017-08-27T08:21:54.714Z,21.10
2017-08-27T08:24:22.041Z,29.33
2017-08-27T08:26:49.727Z,19.27
2017-08-27T08:29:17.096Z,18.97
2017-08-27T08:31:44.807Z,18.03
2017-08-27T08:34:12.121Z,23.23
2017-08-27T08:36:39.499Z,24.60
2017-08-27T08:39:06.834Z,22.07
2017-08-27T08:41:34.158Z,20.40
2017-08-27T08:44:01.508Z,20.13
2017-08-27T08:46:28.808Z,22.80
2017-08-27T08:48:56.157Z,20.00
2017-08-27T08:51:23.490Z,19.60
2017-08-27T08:53:50.870Z,22.23
2017-08-27T08:56:18.160Z,20.57
2017-08-27T08:58:45.492Z,19.70
2017-08-27T09:01:12.793Z,16.93
2017-08-27T09:03:40.126Z,15.33
2017-08-27T09:06:07.438Z,16.37
2017-08-27T09:08:34.806Z,13.77
2017-08-27T09:11:02.125Z,18.13
2017-08-27T09:13:29.693Z,17.23
2017-08-27T09:15:57.019Z,14.50
2017-08-27T09:18:24.362Z,13.37
2017-08-27T09:20:51.707Z,15.10
2017-08-27T09:23:19.106Z,19.10
2017-08-27T09:25:46.446Z,12.53
2017-08-27T09:28:13.762Z,12.43
2017-08-27T09:30:41.082Z,12.30
2017-08-27T09:33:08.464Z,15.87
2017-08-27T09:35:35.813Z,12.83
2017-08-27T09:38:03.137Z,14.23
2017-08-27T09:40:30.482Z,12.27
2017-08-27T09:42:57.780Z,17.50
2017-08-27T09:45:25.163Z,18.60
2017-08-27T09:47:52.471Z,15.87
2017-08-27T09:50:19.802Z,12.93
2017-08-27T09:52:47.133Z,16.07
2017-08-27T09:55:15.110Z,16.10
2017-08-27T09:57:42.732Z,14.80
2017-08-27T10:00:10.096Z,13.53
2017-08-27T10:02:37.458Z,16.23
2017-08-27T10:05:04.806Z,18.10
2017-08-27T10:07:32.133Z,12.83
2017-08-27T10:09:59.463Z,14.60
2017-08-27T10:12:26.791Z,13.30
2017-08-27T10:14:54.135Z,11.60
2017-08-27T10:17:21.497Z,15.30
2017-08-27T10:19:48.827Z,11.47
2017-08-27T10:22:16.174Z,11.43
2017-08-27T10:24:43.481Z,13.07
2017-08-27T10:27:10.793Z,11.20
2017-08-27T10:29:38.111Z,8.87
2017-08-27T10:32:05.426Z,10.30
2017-08-27T10:34:32.771Z,12.60
2017-08-27T10:37:00.119Z,10.60
2017-08-27T10:39:27.454Z,11.37
2017-08-27T10:41:54.792Z,10.13
2017-08-27T10:44:22.145Z,12.57
2017-08-27T10:46:49.481Z,13.43
2017-08-27T10:49:16.798Z,15.00
2017-08-27T10:51:44.105Z,10.37
2017-08-27T10:54:11.403Z,12.37
2017-08-27T10:56:39.057Z,10.30
2017-08-27T10:59:06.357Z,9.90
2017-08-27T11:01:33.662Z,11.23
2017-08-27T11:04:00.975Z,13.03
2017-08-27T11:06:28.281Z,8.10
2017-08-27T11:08:55.640Z,10.00
2017-08-27T11:11:22.986Z,8.93
2017-08-27T11:13:50.331Z,9.27
2017-08-27T11:16:17.662Z,9.93
2017-08-27T11:18:44.965Z,9.67
2017-08-27T11:21:12.311Z,7.30
2017-08-27T11:23:39.626Z,6.40
2017-08-27T11:26:06.930Z,13.30
2017-08-27T11:28:34.282Z,15.73
2017-08-27T11:31:01.608Z,11.07
2017-08-27T11:33:28.958Z,5.90
2017-08-27T11:35:56.286Z,7.47
2017-08-27T11:38:23.631Z,8.40
2017-08-27T11:40:50.965Z,7.03
2017-08-27T11:43:18.272Z,7.07
2017-08-27T11:45:45.579Z,6.23
2017-08-27T11:48:12.922Z,10.57
2017-08-27T11:50:41.173Z,6.70
2017-08-27T11:53:08.477Z,7.07
2017-08-27T11:55:35.799Z,8.93
2017-08-27T11:58:03.107Z,7.43
2017-08-27T12:00:30.437Z,10.33
2017-08-27T12:02:57.746Z,10.30
2017-08-27T12:05:25.077Z,6.30
2017-08-27T12:07:52.370Z,5.20
2017-08-27T12:10:19.685Z,6.70
2017-08-27T12:12:47.040Z,8.80
2017-08-27T12:15:14.365Z,5.53
2017-08-27T12:17:41.691Z,5.13
2017-08-27T12:20:09.004Z,5.20
2017-08-27T12:22:36.302Z,6.20
2017-08-27T12:25:03.625Z,9.13
2017-08-27T12:27:30.957Z,5.70
2017-08-27T12:29:58.279Z,7.90
2017-08-27T12:32:25.573Z,9.07
2017-08-27T12:34:52.890Z,7.10
2017-08-27T12:37:20.221Z,6.03
2017-08-27T12:39:47.565Z,8.27
2017-08-27T12:42:14.906Z,5.40
2017-08-27T12:44:42.245Z,4.93
2017-08-27T12:47:09.566Z,5.90
2017-08-27T12:49:36.870Z,5.43
2017-08-27T12:52:04.246Z,12.70
2017-08-27T12:54:31.557Z,5.87
2017-08-27T12:56:58.855Z,4.40
2017-08-27T12:59:26.172Z,6.53
2017-08-27T13:01:53.486Z,5.40
2017-08-27T13:04:20.791Z,5.80
2017-08-27T13:06:48.119Z,6.20
2017-08-27T13:09:15.456Z,4.87
2017-08-27T13:11:42.761Z,9.23
2017-08-27T13:14:10.062Z,5.17
2017-08-27T13:16:37.915Z,5.70
2017-08-27T13:19:05.236Z,4.30
2017-08-27T13:21:32.534Z,4.60
2017-08-27T13:23:59.830Z,4.90
2017-08-27T13:26:27.161Z,5.23
2017-08-27T13:28:54.487Z,7.37
2017-08-27T13:31:21.859Z,6.47
2017-08-27T13:33:49.190Z,5.40
2017-08-27T13:36:16.487Z,4.27
2017-08-27T13:38:43.824Z,4.97
2017-08-27T13:41:11.123Z,4.97
2017-08-27T13:43:38.455Z,4.73
2017-08-27T13:46:05.765Z,4.53
2017-08-27T13:48:33.100Z,4.60
2017-08-27T13:51:00.411Z,4.40
2017-08-27T13:53:27.721Z,3.90
2017-08-27T13:55:55.028Z,6.50
2017-08-27T13:58:22.351Z,5.50
2017-08-27T14:00:49.667Z,4.00
2017-08-27T14:03:17.268Z,6.03
2017-08-27T14:05:44.618Z,4.93
2017-08-27T14:08:12.017Z,3.40
2017-08-27T14:10:39.317Z,4.90
2017-08-27T14:13:06.673Z,4.47
2017-08-27T14:15:33.968Z,3.60
2017-08-27T14:18:01.286Z,4.13
2017-08-27T14:20:28.590Z,3.70
2017-08-27T14:22:55.926Z,3.90
2017-08-27T14:25:23.234Z,3.30
2017-08-27T14:27:50.555Z,2.37
2017-08-27T14:30:17.848Z,3.20
2017-08-27T14:32:45.207Z,3.17
2017-08-27T14:35:12.591Z,3.03
2017-08-27T14:37:40.076Z,2.83
2017-08-27T14:40:07.685Z,2.60
2017-08-27T14:42:34.982Z,3.10
2017-08-27T14:45:02.300Z,2.90
2017-08-27T14:47:29.620Z,2.50
2017-08-27T14:49:56.974Z,3.17
2017-08-27T14:52:24.287Z,2.70
2017-08-27T14:54:51.632Z,3.73
2017-08-27T14:57:18.939Z,3.07
2017-08-27T14:59:46.267Z,5.70
2017-08-27T15:02:13.580Z,2.60
2017-08-27T15:04:40.910Z,3.10
2017-08-27T15:07:08.240Z,4.23
2017-08-27T15:09:35.549Z,2.50
2017-08-27T15:12:02.859Z,3.03
2017-08-27T15:14:30.168Z,3.13
2017-08-27T15:16:57.814Z,3.80
2017-08-27T15:19:25.121Z,2.50
2017-08-27T15:21:52.479Z,3.90
2017-08-27T15:24:19.765Z,3.70
2017-08-27T15:26:47.087Z,3.73
2017-08-27T15:29:14.463Z,3.93
2017-08-27T15:31:41.792Z,3.50
2017-08-27T15:34:09.103Z,2.60
2017-08-27T15:36:36.422Z,3.27
2017-08-27T15:39:03.735Z,2.40
2017-08-27T15:41:31.064Z,3.60
2017-08-27T15:43:58.354Z,3.50
2017-08-27T15:46:25.716Z,2.97
2017-08-27T15:48:53.046Z,2.50
2017-08-27T15:51:20.362Z,5.20
2017-08-27T15:53:47.682Z,2.20
2017-08-27T15:56:15.006Z,3.60
2017-08-27T15:58:42.506Z,2.77
2017-08-27T16:01:09.858Z,2.67
2017-08-27T16:03:37.197Z,2.43
2017-08-27T16:06:04.548Z,4.40
2017-08-27T16:08:31.897Z,4.10
2017-08-27T16:10:59.222Z,3.23
2017-08-27T16:13:26.688Z,2.70
2017-08-27T16:15:53.993Z,3.20
2017-08-27T16:18:21.304Z,5.43
2017-08-27T16:20:48.597Z,3.37
2017-08-27T16:23:15.941Z,3.53
2017-08-27T16:25:43.262Z,2.57
2017-08-27T16:28:10.586Z,4.40
2017-08-27T16:30:37.881Z,2.97
2017-08-27T16:33:05.226Z,2.80
2017-08-27T16:35:32.518Z,3.83
2017-08-27T16:37:59.851Z,3.17
2017-08-27T16:40:27.149Z,3.07
2017-08-27T16:42:54.477Z,3.33
2017-08-27T16:45:21.794Z,2.63
2017-08-27T16:47:49.134Z,2.80
2017-08-27T16:50:16.420Z,3.33
2017-08-27T16:52:43.725Z,5.53
2017-08-27T16:55:11.068Z,5.43
2017-08-27T16:57:38.403Z,2.60
2017-08-27T17:00:05.766Z,3.03
2017-08-27T17:02:33.174Z,3.27
2017-08-27T17:05:00.491Z,3.30
2017-08-27T17:07:27.795Z,3.47
2017-08-27T17:09:55.122Z,4.57
2017-08-27T17:12:22.473Z,3.83
2017-08-27T17:14:49.819Z,3.07
2017-08-27T17:17:17.126Z,3.47
2017-08-27T17:19:44.503Z,4.00
2017-08-27T17:22:11.816Z,4.17
2017-08-27T17:24:39.166Z,3.17
2017-08-27T17:27:06.481Z,4.90
2017-08-27T17:29:33.845Z,7.37
2017-08-27T17:32:01.169Z,3.97
2017-08-27T17:34:28.483Z,3.93
2017-08-27T17:36:55.783Z,3.90
2017-08-27T17:39:23.140Z,7.23
2017-08-27T17:41:50.466Z,6.03
2017-08-27T17:44:17.799Z,4.83
2017-08-27T17:46:45.110Z,4.83
2017-08-27T17:49:12.661Z,5.80
2017-08-27T17:51:39.975Z,5.63
2017-08-27T17:54:07.278Z,5.30
2017-08-27T17:56:35.532Z,4.67
2017-08-27T17:59:02.858Z,3.57
2017-08-27T18:01:30.216Z,4.70
2017-08-27T18:03:57.524Z,5.07
2017-08-27T18:06:24.840Z,4.13
2017-08-27T18:08:52.139Z,5.30
2017-08-27T18:11:19.457Z,6.33
2017-08-27T18:13:46.808Z,9.80
2017-08-27T18:16:14.150Z,6.90
2017-08-27T18:18:41.776Z,4.10
2017-08-27T18:21:09.099Z,6.97
2017-08-27T18:23:36.578Z,5.17
2017-08-27T18:26:03.930Z,4.47
2017-08-27T18:28:31.250Z,6.20
2017-08-27T18:30:58.545Z,4.20
2017-08-27T18:33:25.871Z,8.03
2017-08-27T18:35:53.465Z,6.03
2017-08-27T18:38:20.768Z,4.60
2017-08-27T18:40:48.100Z,5.07
2017-08-27T18:43:15.408Z,7.20
2017-08-27T18:45:42.733Z,7.80
2017-08-27T18:48:10.042Z,6.60
2017-08-27T18:50:37.350Z,6.40
2017-08-27T18:53:04.695Z,5.67
2017-08-27T18:55:31.989Z,6.10
2017-08-27T18:57:59.306Z,6.27
2017-08-27T19:00:26.606Z,4.70
2017-08-27T19:02:59.753Z,6.27
2017-08-27T19:05:27.054Z,5.00
2017-08-27T19:07:54.374Z,6.47
2017-08-27T19:10:21.674Z,6.23
2017-08-27T19:12:48.990Z,5.57
2017-08-27T19:15:16.296Z,6.60
2017-08-27T19:17:43.667Z,7.23
2017-08-27T19:20:10.967Z,5.10
2017-08-27T19:22:38.295Z,5.17
2017-08-27T19:25:05.933Z,6.47
2017-08-27T19:27:33.277Z,8.83
2017-08-27T19:30:00.615Z,7.50
2017-08-27T19:32:27.921Z,3.60
2017-08-27T19:34:55.236Z,5.00
2017-08-27T19:37:22.569Z,6.53
2017-08-27T19:39:49.862Z,3.73
2017-08-27T19:42:17.203Z,3.83
2017-08-27T19:44:44.488Z,4.53
2017-08-27T19:47:11.832Z,6.60
2017-08-27T19:49:39.234Z,5.87
2017-08-27T19:52:06.570Z,6.23
2017-08-27T19:54:33.876Z,6.40
2017-08-27T19:57:01.184Z,6.73
2017-08-27T19:59:28.553Z,4.07
2017-08-27T20:01:55.881Z,4.63
2017-08-27T20:04:23.215Z,4.70
2017-08-27T20:06:50.578Z,6.43
2017-08-27T20:09:17.915Z,4.87
2017-08-27T20:11:46.083Z,7.33
2017-08-27T20:14:13.384Z,5.40
2017-08-27T20:16:40.706Z,4.13
2017-08-27T20:19:08.270Z,7.73
2017-08-27T20:21:35.588Z,5.73
2017-08-27T20:24:02.915Z,4.97
2017-08-27T20:26:30.213Z,6.03
2017-08-27T20:28:57.521Z,9.53
2017-08-27T20:31:24.876Z,7.57
2017-08-27T20:33:52.196Z,6.27
2017-08-27T20:36:19.551Z,6.87
2017-08-27T20:38:46.854Z,5.70
2017-08-27T20:41:14.170Z,4.20
2017-08-27T20:43:41.490Z,6.40
2017-08-27T20:46:08.852Z,6.40
2017-08-27T20:48:36.194Z,8.53
2017-08-27T20:51:03.525Z,9.63
2017-08-27T20:53:30.851Z,6.10
2017-08-27T20:55:58.183Z,5.77
2017-08-27T20:58:25.488Z,7.67
2017-08-27T21:00:52.938Z,8.00
2017-08-27T21:03:20.218Z,9.93
2017-08-27T21:05:47.556Z,8.60
2017-08-27T21:08:14.944Z,8.80
2017-08-27T21:10:42.275Z,7.47
2017-08-27T21:13:09.559Z,8.03
2017-08-27T21:15:36.878Z,6.67
2017-08-27T21:18:04.166Z,7.07
2017-08-27T21:20:31.511Z,8.10
2017-08-27T21:22:58.814Z,8.17
2017-08-27T21:25:26.137Z,8.80
2017-08-27T21:27:53.437Z,6.60
2017-08-27T21:30:20.771Z,6.80
2017-08-27T21:32:48.442Z,8.13
2017-08-27T21:35:15.730Z,6.70
2017-08-27T21:37:43.032Z,5.47
2017-08-27T21:40:10.331Z,5.20
2017-08-27T21:42:37.646Z,5.40
2017-08-27T21:45:04.941Z,9.33
2017-08-27T21:47:32.261Z,5.73
2017-08-27T21:49:59.577Z,4.50
2017-08-27T21:52:26.911Z,8.27
2017-08-27T21:54:54.197Z,6.67
2017-08-27T21:57:21.513Z,4.87
2017-08-27T21:59:48.834Z,6.13
2017-08-27T22:02:16.161Z,6.73
2017-08-27T22:04:43.461Z,4.53
2017-08-27T22:07:10.785Z,5.70
2017-08-27T22:09:38.405Z,6.80
2017-08-27T22:12:05.724Z,5.10
2017-08-27T22:14:33.031Z,25.77
2017-08-27T22:17:00.332Z,5.40
2017-08-27T22:19:27.661Z,5.60
2017-08-27T22:21:54.949Z,4.50
2017-08-27T22:24:22.273Z,6.27
2017-08-27T22:26:49.877Z,4.67
2017-08-27T22:29:17.203Z,6.47
2017-08-27T22:31:44.501Z,9.70
2017-08-27T22:34:12.126Z,6.10
2017-08-27T22:36:39.467Z,4.70
2017-08-27T22:39:06.774Z,6.40
2017-08-27T22:41:34.079Z,7.00
2017-08-27T22:44:01.403Z,5.60
2017-08-27T22:46:28.730Z,4.63
2017-08-27T22:48:56.055Z,5.50
2017-08-27T22:51:23.354Z,5.00
2017-08-27T22:53:50.675Z,4.87
2017-08-27T22:56:18.004Z,6.60
2017-08-27T22:58:45.346Z,5.60
2017-08-27T23:01:12.675Z,7.10
2017-08-27T23:03:39.994Z,5.20
2017-08-27T23:06:07.299Z,5.10
2017-08-27T23:08:34.631Z,5.40
2017-08-27T23:11:01.931Z,5.73
2017-08-27T23:13:29.246Z,5.83
2017-08-27T23:15:56.539Z,9.60
2017-08-27T23:18:23.892Z,9.40
2017-08-27T23:20:51.202Z,7.13
2017-08-27T23:23:18.499Z,5.30
2017-08-27T23:25:45.808Z,7.90
2017-08-27T23:28:13.123Z,7.70
2017-08-27T23:30:40.420Z,9.17
2017-08-27T23:33:07.712Z,10.73
2017-08-27T23:35:35.465Z,10.90
2017-08-27T23:38:02.799Z,11.40
2017-08-27T23:40:30.107Z,8.33
2017-08-27T23:42:57.415Z,10.20
2017-08-27T23:45:24.733Z,8.00
2017-08-27T23:47:52.046Z,9.83
2017-08-27T23:50:19.371Z,8.60
2017-08-27T23:52:46.685Z,14.20
2017-08-27T23:55:13.984Z,9.37
2017-08-27T23:57:41.326Z,12.43
